sensor_id;sensor_type;location;lat;lon;timestamp;temperature;humidity
758;DHT22;363;48.764;9.172;2023-07-20T00:00:35;20.60;81.00
758;DHT22;363;48.764;9.172;2023-07-20T00:03:13;20.60;80.60
758;DHT22;363;48.764;9.172;2023-07-20T00:05:43;20.60;79.20
758;DHT22;363;48.764;9.172;2023-07-20T00:08:09;20.50;79.30
758;DHT22;363;48.764;9.172;2023-07-20T00:10:34;20.40;79.70
758;DHT22;363;48.764;9.172;2023-07-20T00:13:00;20.60;80.40
758;DHT22;363;48.764;9.172;2023-07-20T00:15:25;20.30;80.70
758;DHT22;363;48.764;9.172;2023-07-20T00:17:51;20.30;80.10
758;DHT22;363;48.764;9.172;2023-07-20T00:20:17;20.30;80.00
758;DHT22;363;48.764;9.172;2023-07-20T00:22:43;20.30;79.60
758;DHT22;363;48.764;9.172;2023-07-20T00:25:09;20.30;78.90
758;DHT22;363;48.764;9.172;2023-07-20T00:27:37;20.40;77.80
758;DHT22;363;48.764;9.172;2023-07-20T00:30:03;20.20;76.10
758;DHT22;363;48.764;9.172;2023-07-20T00:32:29;20.20;75.90
758;DHT22;363;48.764;9.172;2023-07-20T00:34:54;20.20;77.10
758;DHT22;363;48.764;9.172;2023-07-20T00:37:20;20.30;75.80
758;DHT22;363;48.764;9.172;2023-07-20T00:39:46;20.30;75.60
758;DHT22;363;48.764;9.172;2023-07-20T00:42:11;20.70;76.00
758;DHT22;363;48.764;9.172;2023-07-20T00:44:37;20.30;75.30
758;DHT22;363;48.764;9.172;2023-07-20T00:47:02;20.10;74.80
758;DHT22;363;48.764;9.172;2023-07-20T00:49:28;20.20;74.60
758;DHT22;363;48.764;9.172;2023-07-20T00:51:53;20.10;75.30
758;DHT22;363;48.764;9.172;2023-07-20T00:54:19;20.10;75.10
758;DHT22;363;48.764;9.172;2023-07-20T00:56:45;20.00;75.30
758;DHT22;363;48.764;9.172;2023-07-20T00:59:11;20.30;76.20
758;DHT22;363;48.764;9.172;2023-07-20T01:01:37;20.00;76.00
758;DHT22;363;48.764;9.172;2023-07-20T01:04:02;19.70;76.10
758;DHT22;363;48.764;9.172;2023-07-20T01:09:14;19.60;76.40
758;DHT22;363;48.764;9.172;2023-07-20T01:14:14;19.70;77.50
758;DHT22;363;48.764;9.172;2023-07-20T01:16:40;20.10;80.20
758;DHT22;363;48.764;9.172;2023-07-20T01:19:06;19.90;79.10
758;DHT22;363;48.764;9.172;2023-07-20T01:21:39;19.90;79.60
758;DHT22;363;48.764;9.172;2023-07-20T01:24:29;19.70;79.90
758;DHT22;363;48.764;9.172;2023-07-20T01:28:05;19.60;80.30
758;DHT22;363;48.764;9.172;2023-07-20T01:32:57;19.60;82.60
758;DHT22;363;48.764;9.172;2023-07-20T01:35:28;19.30;87.10
758;DHT22;363;48.764;9.172;2023-07-20T01:37:55;19.40;89.00
758;DHT22;363;48.764;9.172;2023-07-20T01:40:22;19.10;87.40
758;DHT22;363;48.764;9.172;2023-07-20T01:42:49;19.00;87.80
758;DHT22;363;48.764;9.172;2023-07-20T01:45:14;18.90;88.50
758;DHT22;363;48.764;9.172;2023-07-20T01:47:40;18.90;88.20
758;DHT22;363;48.764;9.172;2023-07-20T01:50:08;18.70;88.10
758;DHT22;363;48.764;9.172;2023-07-20T01:52:34;18.60;89.10
758;DHT22;363;48.764;9.172;2023-07-20T01:54:59;18.80;89.20
758;DHT22;363;48.764;9.172;2023-07-20T01:57:25;18.60;89.80
758;DHT22;363;48.764;9.172;2023-07-20T01:59:50;18.30;90.10
758;DHT22;363;48.764;9.172;2023-07-20T02:02:16;18.40;90.80
758;DHT22;363;48.764;9.172;2023-07-20T02:04:41;18.30;91.10
758;DHT22;363;48.764;9.172;2023-07-20T02:07:07;18.10;91.30
758;DHT22;363;48.764;9.172;2023-07-20T02:09:32;18.00;91.70
758;DHT22;363;48.764;9.172;2023-07-20T02:11:58;18.40;92.20
758;DHT22;363;48.764;9.172;2023-07-20T02:14:23;18.40;92.40
758;DHT22;363;48.764;9.172;2023-07-20T02:16:49;18.00;92.50
758;DHT22;363;48.764;9.172;2023-07-20T02:19:19;18.00;92.20
758;DHT22;363;48.764;9.172;2023-07-20T02:21:45;17.60;92.10
758;DHT22;363;48.764;9.172;2023-07-20T02:24:11;18.00;92.60
758;DHT22;363;48.764;9.172;2023-07-20T02:26:37;18.00;92.60
758;DHT22;363;48.764;9.172;2023-07-20T02:29:02;18.00;92.60
758;DHT22;363;48.764;9.172;2023-07-20T02:31:30;17.90;92.80
758;DHT22;363;48.764;9.172;2023-07-20T02:33:55;18.40;93.60
758;DHT22;363;48.764;9.172;2023-07-20T02:36:21;18.30;93.70
758;DHT22;363;48.764;9.172;2023-07-20T02:38:46;18.40;93.80
758;DHT22;363;48.764;9.172;2023-07-20T02:41:13;18.40;93.20
758;DHT22;363;48.764;9.172;2023-07-20T02:43:39;18.40;93.10
758;DHT22;363;48.764;9.172;2023-07-20T02:46:04;18.10;93.00
758;DHT22;363;48.764;9.172;2023-07-20T02:48:30;18.20;93.30
758;DHT22;363;48.764;9.172;2023-07-20T02:50:55;18.20;93.50
758;DHT22;363;48.764;9.172;2023-07-20T02:53:21;18.20;93.80
758;DHT22;363;48.764;9.172;2023-07-20T02:55:46;18.00;94.00
758;DHT22;363;48.764;9.172;2023-07-20T02:58:12;17.70;93.90
758;DHT22;363;48.764;9.172;2023-07-20T03:00:38;17.60;94.20
758;DHT22;363;48.764;9.172;2023-07-20T03:03:04;18.00;94.30
758;DHT22;363;48.764;9.172;2023-07-20T03:05:29;17.80;94.30
758;DHT22;363;48.764;9.172;2023-07-20T03:07:55;18.00;94.50
758;DHT22;363;48.764;9.172;2023-07-20T03:10:21;17.80;94.50
758;DHT22;363;48.764;9.172;2023-07-20T03:12:47;17.90;94.90
758;DHT22;363;48.764;9.172;2023-07-20T03:15:12;17.70;95.00
758;DHT22;363;48.764;9.172;2023-07-20T03:17:38;17.50;94.80
758;DHT22;363;48.764;9.172;2023-07-20T03:20:04;17.90;94.80
758;DHT22;363;48.764;9.172;2023-07-20T03:22:30;17.70;94.80
758;DHT22;363;48.764;9.172;2023-07-20T03:24:56;17.80;94.70
758;DHT22;363;48.764;9.172;2023-07-20T03:27:22;17.80;95.10
758;DHT22;363;48.764;9.172;2023-07-20T03:29:48;17.40;94.60
758;DHT22;363;48.764;9.172;2023-07-20T03:32:13;17.70;95.10
758;DHT22;363;48.764;9.172;2023-07-20T03:34:39;17.40;95.30
758;DHT22;363;48.764;9.172;2023-07-20T03:37:04;17.60;95.80
758;DHT22;363;48.764;9.172;2023-07-20T03:39:30;17.40;95.80
758;DHT22;363;48.764;9.172;2023-07-20T03:41:57;17.00;95.50
758;DHT22;363;48.764;9.172;2023-07-20T03:44:22;17.60;95.90
758;DHT22;363;48.764;9.172;2023-07-20T03:46:48;17.60;96.00
758;DHT22;363;48.764;9.172;2023-07-20T03:49:13;17.20;95.90
758;DHT22;363;48.764;9.172;2023-07-20T03:51:39;17.30;96.00
758;DHT22;363;48.764;9.172;2023-07-20T03:54:04;17.20;96.00
758;DHT22;363;48.764;9.172;2023-07-20T03:56:30;17.40;96.10
758;DHT22;363;48.764;9.172;2023-07-20T03:58:59;17.50;96.20
758;DHT22;363;48.764;9.172;2023-07-20T04:01:25;17.60;96.30
758;DHT22;363;48.764;9.172;2023-07-20T04:03:50;17.70;96.40
758;DHT22;363;48.764;9.172;2023-07-20T04:06:16;17.60;96.40
758;DHT22;363;48.764;9.172;2023-07-20T04:08:43;17.70;96.50
758;DHT22;363;48.764;9.172;2023-07-20T04:11:08;17.40;96.00
758;DHT22;363;48.764;9.172;2023-07-20T04:13:34;17.80;96.20
758;DHT22;363;48.764;9.172;2023-07-20T04:16:00;17.70;96.10
758;DHT22;363;48.764;9.172;2023-07-20T04:18:25;18.00;96.20
758;DHT22;363;48.764;9.172;2023-07-20T04:20:51;17.70;95.70
758;DHT22;363;48.764;9.172;2023-07-20T04:23:16;18.20;95.60
758;DHT22;363;48.764;9.172;2023-07-20T04:25:43;18.30;95.30
758;DHT22;363;48.764;9.172;2023-07-20T04:28:09;18.10;94.90
758;DHT22;363;48.764;9.172;2023-07-20T04:30:36;18.50;94.90
758;DHT22;363;48.764;9.172;2023-07-20T04:33:02;18.60;94.70
758;DHT22;363;48.764;9.172;2023-07-20T04:35:49;18.40;94.60
758;DHT22;363;48.764;9.172;2023-07-20T04:38:15;18.60;95.30
758;DHT22;363;48.764;9.172;2023-07-20T04:40:43;18.70;94.40
758;DHT22;363;48.764;9.172;2023-07-20T04:43:09;18.70;94.10
758;DHT22;363;48.764;9.172;2023-07-20T04:45:35;19.20;94.60
758;DHT22;363;48.764;9.172;2023-07-20T04:48:00;18.90;94.00
758;DHT22;363;48.764;9.172;2023-07-20T04:50:26;20.60;94.60
758;DHT22;363;48.764;9.172;2023-07-20T04:52:52;19.50;93.80
758;DHT22;363;48.764;9.172;2023-07-20T04:55:18;19.10;93.80
758;DHT22;363;48.764;9.172;2023-07-20T04:57:44;19.60;93.70
758;DHT22;363;48.764;9.172;2023-07-20T05:00:10;19.90;93.10
758;DHT22;363;48.764;9.172;2023-07-20T05:02:36;19.60;92.60
758;DHT22;363;48.764;9.172;2023-07-20T05:05:03;20.10;92.50
758;DHT22;363;48.764;9.172;2023-07-20T05:07:30;19.90;92.10
758;DHT22;363;48.764;9.172;2023-07-20T05:09:55;20.10;91.70
758;DHT22;363;48.764;9.172;2023-07-20T05:12:21;20.50;91.60
758;DHT22;363;48.764;9.172;2023-07-20T05:14:46;20.10;91.30
758;DHT22;363;48.764;9.172;2023-07-20T05:17:12;20.40;91.30
758;DHT22;363;48.764;9.172;2023-07-20T05:19:37;20.70;91.50
758;DHT22;363;48.764;9.172;2023-07-20T05:22:03;20.80;91.40
758;DHT22;363;48.764;9.172;2023-07-20T05:24:30;20.50;90.90
758;DHT22;363;48.764;9.172;2023-07-20T05:26:57;22.10;91.50
758;DHT22;363;48.764;9.172;2023-07-20T05:29:23;20.70;91.00
758;DHT22;363;48.764;9.172;2023-07-20T05:31:49;21.20;90.90
758;DHT22;363;48.764;9.172;2023-07-20T05:34:14;21.30;90.60
758;DHT22;363;48.764;9.172;2023-07-20T05:36:40;20.90;90.50
758;DHT22;363;48.764;9.172;2023-07-20T05:39:06;21.40;90.80
758;DHT22;363;48.764;9.172;2023-07-20T05:41:32;21.20;90.30
758;DHT22;363;48.764;9.172;2023-07-20T05:43:57;21.00;90.10
758;DHT22;363;48.764;9.172;2023-07-20T05:46:23;21.30;89.70
758;DHT22;363;48.764;9.172;2023-07-20T05:48:49;21.30;89.40
758;DHT22;363;48.764;9.172;2023-07-20T05:51:15;21.50;90.10
758;DHT22;363;48.764;9.172;2023-07-20T05:53:41;21.90;89.90
758;DHT22;363;48.764;9.172;2023-07-20T05:56:06;22.00;88.60
758;DHT22;363;48.764;9.172;2023-07-20T05:58:36;21.60;87.40
758;DHT22;363;48.764;9.172;2023-07-20T06:01:01;23.60;89.20
758;DHT22;363;48.764;9.172;2023-07-20T06:03:27;21.80;86.10
758;DHT22;363;48.764;9.172;2023-07-20T06:05:59;22.40;85.90
758;DHT22;363;48.764;9.172;2023-07-20T06:08:24;22.00;84.80
758;DHT22;363;48.764;9.172;2023-07-20T06:10:50;22.40;84.90
758;DHT22;363;48.764;9.172;2023-07-20T06:13:17;22.30;84.40
758;DHT22;363;48.764;9.172;2023-07-20T06:15:43;22.40;84.20
758;DHT22;363;48.764;9.172;2023-07-20T06:18:09;22.10;84.20
758;DHT22;363;48.764;9.172;2023-07-20T06:20:34;22.70;84.00
758;DHT22;363;48.764;9.172;2023-07-20T06:23:00;23.10;83.70
758;DHT22;363;48.764;9.172;2023-07-20T06:25:25;22.30;82.90
758;DHT22;363;48.764;9.172;2023-07-20T06:27:51;22.60;83.10
758;DHT22;363;48.764;9.172;2023-07-20T06:30:17;22.70;82.80
758;DHT22;363;48.764;9.172;2023-07-20T06:32:43;22.60;81.70
758;DHT22;363;48.764;9.172;2023-07-20T06:35:08;23.20;83.20
758;DHT22;363;48.764;9.172;2023-07-20T06:37:35;22.60;82.90
758;DHT22;363;48.764;9.172;2023-07-20T06:40:01;22.70;82.10
758;DHT22;363;48.764;9.172;2023-07-20T06:42:28;23.00;82.00
758;DHT22;363;48.764;9.172;2023-07-20T06:44:54;23.00;81.30
758;DHT22;363;48.764;9.172;2023-07-20T06:47:19;23.10;82.20
758;DHT22;363;48.764;9.172;2023-07-20T06:49:45;23.10;81.00
758;DHT22;363;48.764;9.172;2023-07-20T06:52:10;23.30;80.80
758;DHT22;363;48.764;9.172;2023-07-20T06:54:36;24.10;81.30
758;DHT22;363;48.764;9.172;2023-07-20T06:57:01;24.10;79.70
758;DHT22;363;48.764;9.172;2023-07-20T06:59:27;24.20;79.00
758;DHT22;363;48.764;9.172;2023-07-20T07:01:52;25.20;78.20
758;DHT22;363;48.764;9.172;2023-07-20T07:04:18;24.60;76.10
758;DHT22;363;48.764;9.172;2023-07-20T07:06:43;25.10;76.40
758;DHT22;363;48.764;9.172;2023-07-20T07:09:10;25.00;75.10
758;DHT22;363;48.764;9.172;2023-07-20T07:11:35;25.00;74.90
758;DHT22;363;48.764;9.172;2023-07-20T07:14:01;24.90;75.40
758;DHT22;363;48.764;9.172;2023-07-20T07:16:26;25.40;73.70
758;DHT22;363;48.764;9.172;2023-07-20T07:18:52;26.40;71.50
758;DHT22;363;48.764;9.172;2023-07-20T07:21:18;28.50;67.10
758;DHT22;363;48.764;9.172;2023-07-20T07:23:45;29.50;60.30
758;DHT22;363;48.764;9.172;2023-07-20T07:26:10;30.50;57.40
758;DHT22;363;48.764;9.172;2023-07-20T07:28:37;31.40;54.10
758;DHT22;363;48.764;9.172;2023-07-20T07:31:04;32.60;50.90
758;DHT22;363;48.764;9.172;2023-07-20T07:33:31;33.00;48.80
758;DHT22;363;48.764;9.172;2023-07-20T07:35:56;33.80;47.80
758;DHT22;363;48.764;9.172;2023-07-20T07:38:22;35.30;45.00
758;DHT22;363;48.764;9.172;2023-07-20T07:40:47;36.20;42.20
758;DHT22;363;48.764;9.172;2023-07-20T07:43:13;36.70;41.10
758;DHT22;363;48.764;9.172;2023-07-20T07:45:39;37.20;38.50
758;DHT22;363;48.764;9.172;2023-07-20T07:48:05;36.20;39.10
758;DHT22;363;48.764;9.172;2023-07-20T07:50:31;35.40;39.70
758;DHT22;363;48.764;9.172;2023-07-20T07:52:57;35.50;40.00
758;DHT22;363;48.764;9.172;2023-07-20T07:55:24;35.90;39.60
758;DHT22;363;48.764;9.172;2023-07-20T07:57:52;35.20;39.10
758;DHT22;363;48.764;9.172;2023-07-20T08:00:18;36.30;39.10
758;DHT22;363;48.764;9.172;2023-07-20T08:02:45;34.90;39.60
758;DHT22;363;48.764;9.172;2023-07-20T08:05:11;35.40;39.80
758;DHT22;363;48.764;9.172;2023-07-20T08:07:37;36.00;38.40
758;DHT22;363;48.764;9.172;2023-07-20T08:10:03;36.00;37.50
758;DHT22;363;48.764;9.172;2023-07-20T08:12:29;37.10;36.70
758;DHT22;363;48.764;9.172;2023-07-20T08:14:54;37.80;35.50
758;DHT22;363;48.764;9.172;2023-07-20T08:17:20;36.70;35.00
758;DHT22;363;48.764;9.172;2023-07-20T08:19:46;36.50;36.00
758;DHT22;363;48.764;9.172;2023-07-20T08:22:12;36.70;35.80
758;DHT22;363;48.764;9.172;2023-07-20T08:24:42;36.40;35.20
758;DHT22;363;48.764;9.172;2023-07-20T08:27:08;35.50;36.60
758;DHT22;363;48.764;9.172;2023-07-20T08:29:37;35.00;36.50
758;DHT22;363;48.764;9.172;2023-07-20T08:32:03;33.60;37.40
758;DHT22;363;48.764;9.172;2023-07-20T08:34:29;32.60;39.80
758;DHT22;363;48.764;9.172;2023-07-20T08:36:55;33.10;40.50
758;DHT22;363;48.764;9.172;2023-07-20T08:39:21;32.40;40.40
758;DHT22;363;48.764;9.172;2023-07-20T08:41:48;32.20;40.90
758;DHT22;363;48.764;9.172;2023-07-20T08:44:14;32.50;40.30
758;DHT22;363;48.764;9.172;2023-07-20T08:46:41;33.50;39.70
758;DHT22;363;48.764;9.172;2023-07-20T08:49:07;33.50;38.20
758;DHT22;363;48.764;9.172;2023-07-20T08:51:35;32.30;39.60
758;DHT22;363;48.764;9.172;2023-07-20T08:54:01;30.70;41.70
758;DHT22;363;48.764;9.172;2023-07-20T08:56:27;29.60;44.10
758;DHT22;363;48.764;9.172;2023-07-20T08:58:56;28.70;46.20
758;DHT22;363;48.764;9.172;2023-07-20T09:01:22;28.20;47.90
758;DHT22;363;48.764;9.172;2023-07-20T09:03:49;28.10;49.00
758;DHT22;363;48.764;9.172;2023-07-20T09:06:15;30.10;46.90
758;DHT22;363;48.764;9.172;2023-07-20T09:08:41;32.00;42.80
758;DHT22;363;48.764;9.172;2023-07-20T09:11:07;33.30;39.70
758;DHT22;363;48.764;9.172;2023-07-20T09:13:34;34.90;37.20
758;DHT22;363;48.764;9.172;2023-07-20T09:16:00;35.90;35.40
758;DHT22;363;48.764;9.172;2023-07-20T09:18:27;36.50;33.90
758;DHT22;363;48.764;9.172;2023-07-20T09:20:58;37.90;33.60
758;DHT22;363;48.764;9.172;2023-07-20T09:23:36;38.40;31.00
758;DHT22;363;48.764;9.172;2023-07-20T09:26:12;38.20;31.30
758;DHT22;363;48.764;9.172;2023-07-20T09:28:51;38.10;31.00
758;DHT22;363;48.764;9.172;2023-07-20T09:31:18;38.30;30.30
758;DHT22;363;48.764;9.172;2023-07-20T09:33:44;39.20;30.30
758;DHT22;363;48.764;9.172;2023-07-20T09:36:10;37.90;31.10
758;DHT22;363;48.764;9.172;2023-07-20T09:38:42;37.10;32.10
758;DHT22;363;48.764;9.172;2023-07-20T09:41:12;37.20;32.40
758;DHT22;363;48.764;9.172;2023-07-20T09:43:39;37.00;32.50
758;DHT22;363;48.764;9.172;2023-07-20T09:46:05;35.70;33.40
758;DHT22;363;48.764;9.172;2023-07-20T09:48:30;34.40;34.40
758;DHT22;363;48.764;9.172;2023-07-20T09:50:56;32.90;35.50
758;DHT22;363;48.764;9.172;2023-07-20T09:53:24;32.00;36.80
758;DHT22;363;48.764;9.172;2023-07-20T09:55:50;33.80;37.00
758;DHT22;363;48.764;9.172;2023-07-20T09:58:17;34.40;35.60
758;DHT22;363;48.764;9.172;2023-07-20T10:00:44;35.40;34.10
758;DHT22;363;48.764;9.172;2023-07-20T10:03:16;36.10;33.50
758;DHT22;363;48.764;9.172;2023-07-20T10:05:47;37.00;32.00
758;DHT22;363;48.764;9.172;2023-07-20T10:08:15;36.80;31.30
758;DHT22;363;48.764;9.172;2023-07-20T10:10:42;36.00;31.80
758;DHT22;363;48.764;9.172;2023-07-20T10:13:18;34.50;33.70
758;DHT22;363;48.764;9.172;2023-07-20T10:15:47;33.20;35.10
758;DHT22;363;48.764;9.172;2023-07-20T10:18:25;32.30;36.30
758;DHT22;363;48.764;9.172;2023-07-20T10:20:54;31.20;38.10
758;DHT22;363;48.764;9.172;2023-07-20T10:23:21;30.50;39.10
758;DHT22;363;48.764;9.172;2023-07-20T10:25:47;29.60;40.20
758;DHT22;363;48.764;9.172;2023-07-20T10:28:13;29.10;41.10
758;DHT22;363;48.764;9.172;2023-07-20T10:30:40;28.80;41.80
758;DHT22;363;48.764;9.172;2023-07-20T10:33:06;29.70;42.70
758;DHT22;363;48.764;9.172;2023-07-20T10:35:50;28.60;42.60
758;DHT22;363;48.764;9.172;2023-07-20T10:38:16;28.70;42.90
758;DHT22;363;48.764;9.172;2023-07-20T10:40:41;28.20;43.20
758;DHT22;363;48.764;9.172;2023-07-20T10:43:09;28.90;43.60
758;DHT22;363;48.764;9.172;2023-07-20T10:45:52;27.70;44.00
758;DHT22;363;48.764;9.172;2023-07-20T10:48:20;27.30;43.80
758;DHT22;363;48.764;9.172;2023-07-20T10:51:19;27.50;44.70
758;DHT22;363;48.764;9.172;2023-07-20T10:53:45;27.00;45.00
758;DHT22;363;48.764;9.172;2023-07-20T10:56:22;27.80;45.10
758;DHT22;363;48.764;9.172;2023-07-20T10:58:48;26.80;45.40
758;DHT22;363;48.764;9.172;2023-07-20T11:01:17;28.10;44.70
758;DHT22;363;48.764;9.172;2023-07-20T11:03:43;27.40;43.80
758;DHT22;363;48.764;9.172;2023-07-20T11:09:10;29.00;41.30
758;DHT22;363;48.764;9.172;2023-07-20T11:11:37;30.70;39.10
758;DHT22;363;48.764;9.172;2023-07-20T11:14:09;32.60;37.00
758;DHT22;363;48.764;9.172;2023-07-20T11:16:43;33.70;33.90
758;DHT22;363;48.764;9.172;2023-07-20T11:19:25;32.40;33.60
758;DHT22;363;48.764;9.172;2023-07-20T11:21:52;31.80;35.60
758;DHT22;363;48.764;9.172;2023-07-20T11:24:18;31.10;35.10
758;DHT22;363;48.764;9.172;2023-07-20T11:26:46;30.20;36.60
758;DHT22;363;48.764;9.172;2023-07-20T11:29:13;30.60;36.50
758;DHT22;363;48.764;9.172;2023-07-20T11:31:43;31.60;35.60
758;DHT22;363;48.764;9.172;2023-07-20T11:34:16;31.30;36.30
758;DHT22;363;48.764;9.172;2023-07-20T11:36:43;30.80;35.90
758;DHT22;363;48.764;9.172;2023-07-20T11:39:10;30.70;36.10
758;DHT22;363;48.764;9.172;2023-07-20T11:41:36;30.00;37.10
758;DHT22;363;48.764;9.172;2023-07-20T11:44:02;29.70;37.70
758;DHT22;363;48.764;9.172;2023-07-20T11:46:28;29.30;38.90
758;DHT22;363;48.764;9.172;2023-07-20T11:48:58;30.10;38.70
758;DHT22;363;48.764;9.172;2023-07-20T11:51:28;29.30;37.80
758;DHT22;363;48.764;9.172;2023-07-20T11:53:55;28.90;39.50
758;DHT22;363;48.764;9.172;2023-07-20T11:56:20;29.40;39.00
758;DHT22;363;48.764;9.172;2023-07-20T11:58:46;30.40;38.60
758;DHT22;363;48.764;9.172;2023-07-20T12:01:13;29.90;38.30
758;DHT22;363;48.764;9.172;2023-07-20T12:03:39;28.80;38.60
758;DHT22;363;48.764;9.172;2023-07-20T12:06:08;29.40;39.10
758;DHT22;363;48.764;9.172;2023-07-20T12:08:34;29.30;38.20
758;DHT22;363;48.764;9.172;2023-07-20T12:11:00;28.90;38.10
758;DHT22;363;48.764;9.172;2023-07-20T12:13:40;28.60;38.50
758;DHT22;363;48.764;9.172;2023-07-20T12:16:15;28.30;39.60
758;DHT22;363;48.764;9.172;2023-07-20T12:18:44;28.20;39.30
758;DHT22;363;48.764;9.172;2023-07-20T12:21:10;28.30;39.60
758;DHT22;363;48.764;9.172;2023-07-20T12:23:41;28.20;39.30
758;DHT22;363;48.764;9.172;2023-07-20T12:26:10;28.00;39.30
758;DHT22;363;48.764;9.172;2023-07-20T12:28:39;28.60;40.30
758;DHT22;363;48.764;9.172;2023-07-20T12:31:07;27.70;40.50
758;DHT22;363;48.764;9.172;2023-07-20T12:33:32;28.10;40.00
758;DHT22;363;48.764;9.172;2023-07-20T12:36:00;27.80;40.20
758;DHT22;363;48.764;9.172;2023-07-20T12:38:27;28.60;41.10
758;DHT22;363;48.764;9.172;2023-07-20T12:40:53;28.20;40.90
758;DHT22;363;48.764;9.172;2023-07-20T12:43:21;27.90;41.20
758;DHT22;363;48.764;9.172;2023-07-20T12:45:46;27.80;41.50
758;DHT22;363;48.764;9.172;2023-07-20T12:48:12;27.80;41.50
758;DHT22;363;48.764;9.172;2023-07-20T12:50:38;27.80;41.20
758;DHT22;363;48.764;9.172;2023-07-20T12:53:03;27.80;41.10
758;DHT22;363;48.764;9.172;2023-07-20T12:55:29;27.80;40.40
758;DHT22;363;48.764;9.172;2023-07-20T12:57:54;27.80;40.90
758;DHT22;363;48.764;9.172;2023-07-20T13:00:20;27.80;41.00
758;DHT22;363;48.764;9.172;2023-07-20T13:02:48;27.80;41.40
758;DHT22;363;48.764;9.172;2023-07-20T13:05:14;27.90;40.60
758;DHT22;363;48.764;9.172;2023-07-20T13:07:41;27.30;40.30
758;DHT22;363;48.764;9.172;2023-07-20T13:10:07;28.10;40.80
758;DHT22;363;48.764;9.172;2023-07-20T13:12:34;27.40;40.50
758;DHT22;363;48.764;9.172;2023-07-20T13:15:02;27.30;40.40
758;DHT22;363;48.764;9.172;2023-07-20T13:17:31;27.40;40.90
758;DHT22;363;48.764;9.172;2023-07-20T13:19:57;27.50;40.70
758;DHT22;363;48.764;9.172;2023-07-20T13:22:22;28.50;41.20
758;DHT22;363;48.764;9.172;2023-07-20T13:24:49;28.00;41.70
758;DHT22;363;48.764;9.172;2023-07-20T13:27:16;27.90;41.00
758;DHT22;363;48.764;9.172;2023-07-20T13:29:42;27.40;40.20
758;DHT22;363;48.764;9.172;2023-07-20T13:32:09;27.30;40.20
758;DHT22;363;48.764;9.172;2023-07-20T13:34:35;27.10;40.90
758;DHT22;363;48.764;9.172;2023-07-20T13:37:01;26.90;41.20
758;DHT22;363;48.764;9.172;2023-07-20T13:39:27;26.80;41.00
758;DHT22;363;48.764;9.172;2023-07-20T13:41:55;26.30;40.50
758;DHT22;363;48.764;9.172;2023-07-20T13:44:21;26.70;40.90
758;DHT22;363;48.764;9.172;2023-07-20T13:46:50;27.60;41.30
758;DHT22;363;48.764;9.172;2023-07-20T13:49:15;26.80;40.10
758;DHT22;363;48.764;9.172;2023-07-20T13:51:44;26.80;40.70
758;DHT22;363;48.764;9.172;2023-07-20T13:54:10;27.90;41.30
758;DHT22;363;48.764;9.172;2023-07-20T13:56:35;28.30;41.80
758;DHT22;363;48.764;9.172;2023-07-20T13:59:01;27.00;40.60
758;DHT22;363;48.764;9.172;2023-07-20T14:01:27;27.10;40.50
758;DHT22;363;48.764;9.172;2023-07-20T14:03:55;27.10;40.50
758;DHT22;363;48.764;9.172;2023-07-20T14:06:21;27.70;40.10
758;DHT22;363;48.764;9.172;2023-07-20T14:08:46;27.10;40.30
758;DHT22;363;48.764;9.172;2023-07-20T14:11:13;27.00;40.50
758;DHT22;363;48.764;9.172;2023-07-20T14:13:39;27.30;40.20
758;DHT22;363;48.764;9.172;2023-07-20T14:16:05;27.40;39.80
758;DHT22;363;48.764;9.172;2023-07-20T14:18:31;27.10;39.90
758;DHT22;363;48.764;9.172;2023-07-20T14:20:57;27.10;40.10
758;DHT22;363;48.764;9.172;2023-07-20T14:23:22;27.20;39.90
758;DHT22;363;48.764;9.172;2023-07-20T14:25:48;28.40;40.40
758;DHT22;363;48.764;9.172;2023-07-20T14:28:14;29.10;40.90
758;DHT22;363;48.764;9.172;2023-07-20T14:30:41;27.10;39.10
758;DHT22;363;48.764;9.172;2023-07-20T14:33:07;27.00;39.40
758;DHT22;363;48.764;9.172;2023-07-20T14:35:33;26.90;39.70
758;DHT22;363;48.764;9.172;2023-07-20T14:37:59;27.30;40.30
758;DHT22;363;48.764;9.172;2023-07-20T14:40:25;27.10;39.60
758;DHT22;363;48.764;9.172;2023-07-20T14:42:50;27.30;40.60
758;DHT22;363;48.764;9.172;2023-07-20T14:47:43;26.80;39.60
758;DHT22;363;48.764;9.172;2023-07-20T14:50:09;26.90;40.50
758;DHT22;363;48.764;9.172;2023-07-20T14:52:35;26.70;40.50
758;DHT22;363;48.764;9.172;2023-07-20T14:55:01;26.70;40.40
758;DHT22;363;48.764;9.172;2023-07-20T14:57:26;27.00;40.50
758;DHT22;363;48.764;9.172;2023-07-20T14:59:52;26.80;40.60
758;DHT22;363;48.764;9.172;2023-07-20T15:02:18;27.00;40.60
758;DHT22;363;48.764;9.172;2023-07-20T15:04:48;26.90;41.00
758;DHT22;363;48.764;9.172;2023-07-20T15:07:18;27.50;41.60
758;DHT22;363;48.764;9.172;2023-07-20T15:09:44;26.90;39.70
758;DHT22;363;48.764;9.172;2023-07-20T15:12:10;26.80;39.80
758;DHT22;363;48.764;9.172;2023-07-20T15:14:39;26.90;39.50
758;DHT22;363;48.764;9.172;2023-07-20T15:17:05;27.20;40.00
758;DHT22;363;48.764;9.172;2023-07-20T15:19:31;27.10;39.70
758;DHT22;363;48.764;9.172;2023-07-20T15:21:58;26.90;39.50
758;DHT22;363;48.764;9.172;2023-07-20T15:24:23;27.30;39.90
758;DHT22;363;48.764;9.172;2023-07-20T15:26:49;27.50;40.40
758;DHT22;363;48.764;9.172;2023-07-20T15:29:14;28.00;41.10
758;DHT22;363;48.764;9.172;2023-07-20T15:31:40;26.80;40.10
758;DHT22;363;48.764;9.172;2023-07-20T15:34:05;26.90;40.20
758;DHT22;363;48.764;9.172;2023-07-20T15:36:31;26.90;40.70
758;DHT22;363;48.764;9.172;2023-07-20T15:38:57;26.80;40.70
758;DHT22;363;48.764;9.172;2023-07-20T15:41:22;26.90;39.60
758;DHT22;363;48.764;9.172;2023-07-20T15:43:48;27.60;39.70
758;DHT22;363;48.764;9.172;2023-07-20T15:48:44;26.80;39.80
758;DHT22;363;48.764;9.172;2023-07-20T15:51:10;26.70;39.80
758;DHT22;363;48.764;9.172;2023-07-20T15:53:35;27.00;40.10
758;DHT22;363;48.764;9.172;2023-07-20T15:56:01;26.70;39.80
758;DHT22;363;48.764;9.172;2023-07-20T15:58:27;26.60;40.20
758;DHT22;363;48.764;9.172;2023-07-20T16:00:54;26.50;40.60
758;DHT22;363;48.764;9.172;2023-07-20T16:03:20;26.70;40.50
758;DHT22;363;48.764;9.172;2023-07-20T16:05:46;26.30;40.70
758;DHT22;363;48.764;9.172;2023-07-20T16:08:12;26.50;40.90
758;DHT22;363;48.764;9.172;2023-07-20T16:10:38;26.70;41.10
758;DHT22;363;48.764;9.172;2023-07-20T16:13:04;26.10;41.00
758;DHT22;363;48.764;9.172;2023-07-20T16:15:30;27.50;41.80
758;DHT22;363;48.764;9.172;2023-07-20T16:17:55;26.10;40.90
758;DHT22;363;48.764;9.172;2023-07-20T16:20:21;26.60;40.90
758;DHT22;363;48.764;9.172;2023-07-20T16:22:46;26.20;41.00
758;DHT22;363;48.764;9.172;2023-07-20T16:25:12;26.30;41.10
758;DHT22;363;48.764;9.172;2023-07-20T16:27:38;26.60;40.50
758;DHT22;363;48.764;9.172;2023-07-20T16:30:06;26.30;40.90
758;DHT22;363;48.764;9.172;2023-07-20T16:32:32;26.30;40.70
758;DHT22;363;48.764;9.172;2023-07-20T16:34:59;26.10;41.10
758;DHT22;363;48.764;9.172;2023-07-20T16:37:25;26.80;41.60
758;DHT22;363;48.764;9.172;2023-07-20T16:39:51;26.30;41.20
758;DHT22;363;48.764;9.172;2023-07-20T16:42:18;26.70;41.30
758;DHT22;363;48.764;9.172;2023-07-20T16:44:51;26.80;41.20
758;DHT22;363;48.764;9.172;2023-07-20T16:47:18;26.30;41.10